CheckWX is a tool to help pilots better visualize weather data.  It is not intended as a substitute for an official pre-flight weather briefing.

11:39:17 UTC

KAPN METAR
Alpena County Regional Airport
Alpena, Michigan, USA
Current

45 mins ago

KAPN 251054Z AUTO 02005KT 10SM CLR M03/M04 A3001 RMK AO2 SLP172 T10281044
Observed
Feb-25 @ 10:54 UTC
Wind
  • 020° at 5 KTS
Visibility
10 SM
Flight Rules
VFR
Cloud Levels
  • Clear skies
Temperature
-3°C / 27°F
Dewpoint
-4°C / 25°F
Humidity
93%
Altimeter
30.01" Hg
Pressure
1016.22 hPa
Previous

2 hours ago

KAPN 250954Z AUTO 03006KT 10SM CLR M03/M04 A2998 RMK AO2 SLP161 T10281044
Observed
Feb-25 @ 09:54 UTC
Wind
  • 030° at 6 KTS
Visibility
10 SM
Flight Rules
VFR
Cloud Levels
  • Clear skies
Temperature
-3°C / 27°F
Dewpoint
-4°C / 25°F
Humidity
93%
Altimeter
29.98" Hg
Pressure
1015.22 hPa
Previous

3 hours ago

KAPN 250854Z AUTO 02009KT 10SM CLR M02/M04 A2998 RMK AO2 SLP159 T10221039 53005
Observed
Feb-25 @ 08:54 UTC
Wind
  • 020° at 9 KTS
Visibility
10 SM
Flight Rules
VFR
Cloud Levels
  • Clear skies
Temperature
-2°C / 28°F
Dewpoint
-4°C / 25°F
Humidity
86%
Altimeter
29.98" Hg
Pressure
1015.22 hPa